TimeEST,TemperatureF,Dew PointF,Humidity,Sea Level PressureIn,VisibilityMPH,Wind Direction,Wind SpeedMPH,Gust SpeedMPH,PrecipitationIn,Events,Conditions,WindDirDegrees,DateUTC
12:56 AM,50.0,36.0,59,30.18,10.0,NE,12.7,-,N/A,,Overcast,40,2012-12-12 05:56:00
1:56 AM,48.9,37.9,66,30.20,10.0,NNE,11.5,-,N/A,,Overcast,30,2012-12-12 06:56:00
2:56 AM,48.0,37.9,68,30.23,10.0,NE,13.8,-,0.00,Rain,Light Rain,40,2012-12-12 07:56:00
3:27 AM,48.2,37.4,66,30.21,10.0,NNE,18.4,24.2,0.00,,Overcast,30,2012-12-12 08:27:00
3:56 AM,46.9,37.0,68,30.22,10.0,NNE,12.7,24.2,0.00,,Overcast,20,2012-12-12 08:56:00
4:56 AM,46.9,35.1,63,30.23,10.0,NNE,17.3,-,N/A,,Overcast,30,2012-12-12 09:56:00
5:10 AM,46.4,35.6,66,30.23,10.0,NNE,16.1,-,0.00,Rain,Light Rain,30,2012-12-12 10:10:00
5:56 AM,46.0,37.9,73,30.25,10.0,NE,12.7,-,0.00,Rain,Light Rain,40,2012-12-12 10:56:00
6:26 AM,46.4,35.6,66,30.25,10.0,NNE,16.1,23.0,0.00,,Overcast,20,2012-12-12 11:26:00
6:28 AM,46.4,35.6,66,30.25,10.0,NNE,17.3,23.0,0.00,,Overcast,30,2012-12-12 11:28:00
6:56 AM,46.9,37.0,68,30.27,10.0,NNE,15.0,-,0.00,,Overcast,30,2012-12-12 11:56:00
7:56 AM,46.9,37.0,68,30.29,10.0,NNE,16.1,-,N/A,,Overcast,20,2012-12-12 12:56:00
8:56 AM,46.9,37.0,68,30.31,10.0,NNE,19.6,24.2,0.00,,Light Drizzle,30,2012-12-12 13:56:00
9:56 AM,46.9,37.9,71,30.33,10.0,NNE,17.3,-,0.00,Rain,Light Rain,30,2012-12-12 14:56:00
10:36 AM,46.4,37.4,71,30.33,10.0,NNE,16.1,-,0.01,,Overcast,30,2012-12-12 15:36:00
10:56 AM,46.9,37.9,71,30.33,10.0,NE,16.1,-,0.01,,Overcast,40,2012-12-12 15:56:00
11:34 AM,46.4,37.4,71,30.32,10.0,NNE,16.1,21.9,0.00,Rain,Light Rain,30,2012-12-12 16:34:00
11:56 AM,48.0,37.9,68,30.32,10.0,NNE,15.0,-,0.00,,Overcast,20,2012-12-12 16:56:00
12:56 PM,46.9,37.0,68,30.31,10.0,NNE,15.0,-,N/A,,Overcast,20,2012-12-12 17:56:00
1:56 PM,48.0,37.0,66,30.31,10.0,NNE,15.0,-,N/A,,Overcast,30,2012-12-12 18:56:00
2:56 PM,46.9,34.0,61,30.30,10.0,NNE,15.0,-,N/A,,Overcast,30,2012-12-12 19:56:00
3:56 PM,46.9,33.1,59,30.31,10.0,NNE,13.8,25.3,N/A,,Overcast,20,2012-12-12 20:56:00
4:56 PM,46.9,33.1,59,30.32,10.0,NNE,17.3,24.2,N/A,,Overcast,30,2012-12-12 21:56:00
5:56 PM,46.9,35.1,63,30.31,10.0,NNE,16.1,-,N/A,,Overcast,30,2012-12-12 22:56:00
6:56 PM,46.9,35.1,63,30.34,10.0,NNE,17.3,26.5,N/A,,Overcast,30,2012-12-12 23:56:00
7:56 PM,46.9,36.0,66,30.33,10.0,NNE,18.4,24.2,N/A,,Overcast,30,2012-12-13 00:56:00
8:16 PM,46.4,35.6,66,30.31,10.0,NNE,16.1,-,N/A,,Overcast,30,2012-12-13 01:16:00
8:56 PM,46.9,35.1,63,30.33,10.0,NNE,17.3,25.3,N/A,,Overcast,30,2012-12-13 01:56:00
9:38 PM,46.4,35.6,66,30.34,10.0,NNE,18.4,24.2,N/A,,Overcast,30,2012-12-13 02:38:00
9:56 PM,46.9,35.1,63,30.35,10.0,NNE,17.3,-,N/A,,Overcast,20,2012-12-13 02:56:00
10:56 PM,46.0,36.0,68,30.31,10.0,NNE,19.6,-,N/A,,Overcast,20,2012-12-13 03:56:00
11:56 PM,46.0,36.0,68,30.32,10.0,North,15.0,-,N/A,,Overcast,10,2012-12-13 04:56:00